Time;durP1;ratioP1;P1;durP2;ratioP2;P2;SDS_P1;SDS_P2;PMS_P1;PMS_P2;Temp;Humidity;BMP_temperature;BMP_pressure;BME280_temperature;BME280_humidity;BME280_pressure;Samples;Min_cycle;Max_cycle;Signal;HPM_P1;HPM_P2
2021/09/20 00:07:02;;;;;;;6.47;4.35;;;;;;;14.73;86.68;100464.63;20735156;28;20046;-70
2021/09/20 00:17:04;;;;;;;8.27;5.50;;;;;;;14.45;82.71;100461.97;20737419;28;20050;-71
2021/09/20 00:27:07;;;;;;;10.80;5.32;;;;;;;14.38;84.96;100465.72;20736733;28;20053;-70
2021/09/20 00:37:10;;;;;;;10.03;5.90;;;;;;;14.48;83.67;100459.28;20736253;28;20096;-70
2021/09/20 00:47:12;;;;;;;8.52;5.05;;;;;;;14.46;84.22;100466.31;20736509;28;20136;-71
2021/09/20 00:57:14;;;;;;;9.95;5.68;;;;;;;14.43;84.83;100476.97;20736506;28;20042;-71
2021/09/20 01:07:16;;;;;;;8.23;5.60;;;;;;;14.21;84.58;100466.19;20735100;28;20069;-70
2021/09/20 01:17:18;;;;;;;8.90;5.75;;;;;;;14.27;82.87;100473.06;20735167;28;20046;-71
2021/09/20 01:27:20;;;;;;;9.25;5.57;;;;;;;14.18;82.94;100483.84;20747330;28;20049;-71
2021/09/20 01:37:21;;;;;;;8.48;5.47;;;;;;;14.14;82.21;100479.59;20748990;28;20042;-70
2021/09/20 01:47:23;;;;;;;9.63;5.55;;;;;;;14.18;81.51;100475.94;20748584;28;20058;-71
2021/09/20 01:57:25;;;;;;;8.50;5.78;;;;;;;14.21;81.79;100484.63;20748138;28;20057;-71
2021/09/20 02:07:27;;;;;;;8.88;5.97;;;;;;;14.28;81.97;100475.66;20746661;28;20378;-71
2021/09/20 02:17:29;;;;;;;9.25;5.63;;;;;;;14.14;81.66;100479.59;20746547;28;20149;-71
2021/09/20 02:27:30;;;;;;;9.02;6.00;;;;;;;14.10;82.63;100484.94;20744938;28;20046;-71
2021/09/20 02:37:33;;;;;;;11.18;5.63;;;;;;;14.08;82.68;100488.53;20743744;28;20042;-70
2021/09/20 02:47:36;;;;;;;10.50;5.70;;;;;;;14.08;81.96;100486.78;20744018;28;20041;-70
2021/09/20 02:57:39;;;;;;;9.98;6.22;;;;;;;13.97;82.07;100486.19;20743434;28;20590;-71
2021/09/20 03:07:41;;;;;;;9.35;5.95;;;;;;;13.90;81.94;100483.81;20742114;28;20404;-71
2021/09/20 03:17:43;;;;;;;9.43;6.10;;;;;;;13.84;82.10;100496.19;20741757;28;20050;-69
2021/09/20 03:27:45;;;;;;;10.40;6.75;;;;;;;13.94;81.37;100502.09;20734826;28;20551;-70
2021/09/20 03:37:47;;;;;;;9.55;6.22;;;;;;;13.94;82.12;100502.09;20688082;28;20582;-71
2021/09/20 03:47:49;;;;;;;11.20;6.47;;;;;;;13.83;81.75;100504.16;20715718;28;20060;-70
2021/09/20 03:57:51;;;;;;;9.63;6.35;;;;;;;13.83;81.16;100512.91;20738607;28;20463;-70
2021/09/20 04:07:53;;;;;;;13.32;6.53;;;;;;;13.79;80.76;100516.50;20737930;28;20045;-70
2021/09/20 04:17:55;;;;;;;10.30;7.55;;;;;;;13.75;80.55;100519.28;20738382;28;20478;-70
2021/09/20 04:27:57;;;;;;;12.82;6.95;;;;;;;13.65;81.37;100523.91;20737613;28;20495;-70
2021/09/20 04:37:58;;;;;;;10.98;6.65;;;;;;;13.59;81.05;100526.72;20737398;28;20108;-70
2021/09/20 04:48:00;;;;;;;11.32;7.30;;;;;;;13.54;82.03;100532.09;20736632;28;20408;-70
2021/09/20 04:58:04;;;;;;;11.55;7.03;;;;;;;13.67;80.64;100545.81;20727704;28;20042;-70
2021/09/20 05:08:06;;;;;;;11.30;7.20;;;;;;;13.54;81.05;100545.25;20752378;28;20050;-70
2021/09/20 05:18:08;;;;;;;12.27;6.95;;;;;;;13.51;80.45;100555.88;20751866;28;20046;-71
2021/09/20 05:28:10;;;;;;;11.82;6.88;;;;;;;13.53;80.00;100558.44;20733827;28;20054;-70
2021/09/20 05:38:14;;;;;;;11.80;7.13;;;;;;;13.44;81.08;100559.53;20749880;28;20112;-70
2021/09/20 05:48:18;;;;;;;12.20;7.25;;;;;;;13.49;80.97;100565.53;20749039;28;20546;-70
2021/09/20 05:58:21;;;;;;;11.02;7.18;;;;;;;13.63;80.31;100564.34;20747666;28;20057;-70
2021/09/20 06:08:23;;;;;;;12.15;7.22;;;;;;;13.73;80.19;100578.97;20746346;28;20094;-69
2021/09/20 06:18:25;;;;;;;11.32;7.97;;;;;;;13.72;79.48;100585.16;20747145;28;20053;-70
2021/09/20 06:28:26;;;;;;;11.73;7.55;;;;;;;13.84;77.95;100590.94;20745057;28;20049;-69
2021/09/20 06:38:28;;;;;;;12.27;7.50;;;;;;;14.12;77.23;100593.72;20744072;28;20108;-70
2021/09/20 06:48:30;;;;;;;10.85;7.88;;;;;;;14.12;77.19;100593.72;20744483;28;20042;-70
2021/09/20 06:58:32;;;;;;;13.32;8.05;;;;;;;14.25;76.46;100596.03;20744163;28;20053;-70
2021/09/20 07:08:34;;;;;;;12.15;7.97;;;;;;;14.35;76.64;100597.50;20762474;28;20092;-70
2021/09/20 07:18:36;;;;;;;14.23;7.55;;;;;;;14.46;76.72;100600.69;20813366;28;20111;-70
2021/09/20 07:28:37;;;;;;;11.95;7.80;;;;;;;14.37;76.32;100603.56;20741664;28;20050;-69
2021/09/20 07:38:39;;;;;;;14.73;8.82;;;;;;;14.55;75.82;100611.00;20765814;28;20045;-69
2021/09/20 07:48:41;;;;;;;11.75;8.20;;;;;;;14.49;75.84;100626.13;20823117;28;20099;-69
2021/09/20 07:58:43;;;;;;;17.73;9.00;;;;;;;14.87;75.20;100619.75;20822351;28;20045;-69
2021/09/20 08:08:45;;;;;;;18.30;9.43;;;;;;;15.31;74.69;100628.06;20820924;28;20045;-69
2021/09/20 08:18:46;;;;;;;14.77;8.77;;;;;;;15.05;74.92;100642.91;20729974;28;20462;-69
2021/09/20 08:28:49;;;;;;;15.93;9.77;;;;;;;15.05;74.75;100649.97;20723984;28;20042;-69
2021/09/20 08:38:50;;;;;;;18.08;11.32;;;;;;;15.32;73.70;100645.59;20765357;28;20104;-69
2021/09/20 08:48:52;;;;;;;17.02;11.10;;;;;;;15.32;73.22;100648.25;20766283;28;20042;-69
2021/09/20 08:58:54;;;;;;;21.75;12.10;;;;;;;16.16;71.27;100661.34;20765277;28;20112;-69
2021/09/20 09:08:56;;;;;;;20.73;13.02;;;;;;;16.06;70.14;100671.38;20764259;28;20449;-69
2021/09/20 09:19:08;;;;;;;18.63;11.32;;;;;;;15.97;72.42;100682.25;20838829;28;20050;-69
2021/09/20 09:29:13;;;;;;;17.98;11.63;;;;;;;16.13;72.28;100683.44;20847934;28;20096;-69
2021/09/20 09:39:29;;;;;;;20.63;11.95;;;;;;;16.02;72.58;100685.59;20844986;28;20046;-69
2021/09/20 09:49:31;;;;;;;17.35;11.73;;;;;;;16.02;72.17;100696.16;20832750;28;20049;-69
2021/09/20 09:59:33;;;;;;;20.00;12.88;;;;;;;15.97;72.22;100689.31;20832192;28;20115;-70
2021/09/20 10:09:35;;;;;;;23.08;12.38;;;;;;;15.78;73.42;100687.28;20749875;28;20129;-68
2021/09/20 10:19:36;;;;;;;19.17;12.38;;;;;;;15.90;73.16;100688.63;20827386;28;20100;-71
2021/09/20 10:29:40;;;;;;;19.50;10.82;;;;;;;16.16;71.37;100691.28;20828954;28;20103;-71
2021/09/20 10:39:49;;;;;;;16.70;10.95;;;;;;;16.74;68.46;100691.03;20828343;28;20438;-70
2021/09/20 10:49:51;;;;;;;15.50;9.48;;;;;;;16.90;66.65;100689.53;20748888;28;20081;-71
2021/09/20 11:00:23;;;;;;;11.93;8.43;;;;;;;16.80;67.33;100684.66;20705676;28;20488;-71
2021/09/20 11:10:30;;;;;;;13.25;9.55;;;;;;;16.90;66.16;100686.88;20736868;28;20050;-71
2021/09/20 11:20:38;;;;;;;13.68;9.45;;;;;;;16.92;66.01;100689.50;20676183;28;20089;-70
2021/09/20 11:30:40;;;;;;;12.80;8.80;;;;;;;16.90;66.09;100701.91;20661449;28;20054;-70
2021/09/20 11:40:42;;;;;;;13.07;9.32;;;;;;;17.57;65.79;100693.16;20730778;28;20050;-70
2021/09/20 11:50:44;;;;;;;12.43;8.55;;;;;;;17.65;63.89;100701.66;20716231;28;20748;-70
2021/09/20 12:00:50;;;;;;;15.32;8.88;;;;;;;17.27;64.97;100700.53;20669450;28;20100;-70
2021/09/20 12:10:58;;;;;;;14.20;7.85;;;;;;;17.70;64.26;100707.63;20737303;28;20452;-70
2021/09/20 12:21:08;;;;;;;14.05;8.98;;;;;;;17.89;62.56;100706.00;20728269;28;20057;-69
2021/09/20 12:31:17;;;;;;;13.27;8.70;;;;;;;18.44;61.73;100702.78;20735856;28;20034;-70
2021/09/20 12:41:19;;;;;;;14.30;8.30;;;;;;;17.73;62.56;100709.31;20737225;28;20424;-70
2021/09/20 12:51:23;;;;;;;12.38;8.57;;;;;;;18.49;60.32;100705.25;20654552;28;20054;-70
2021/09/20 13:01:27;;;;;;;12.70;8.67;;;;;;;18.11;62.42;100703.31;20657739;28;20623;-70
2021/09/20 13:11:42;;;;;;;14.60;9.05;;;;;;;17.69;63.82;100706.78;20677763;28;20124;-70
2021/09/20 13:21:44;;;;;;;13.60;9.70;;;;;;;17.73;62.57;100701.38;20749478;28;20042;-70
2021/09/20 13:31:47;;;;;;;13.57;9.15;;;;;;;17.91;62.55;100708.56;20748376;28;20050;-69
2021/09/20 13:41:49;;;;;;;12.18;7.90;;;;;;;18.14;62.20;100704.97;20748776;28;20510;-71
2021/09/20 13:51:51;;;;;;;12.32;8.55;;;;;;;18.34;61.51;100701.47;20705810;28;20050;-70
2021/09/20 14:01:53;;;;;;;12.20;8.25;;;;;;;18.78;60.49;100703.97;20669619;28;20050;-70
2021/09/20 14:11:55;;;;;;;15.15;9.00;;;;;;;18.61;59.88;100699.41;20750120;28;20133;-70
2021/09/20 14:21:58;;;;;;;10.95;8.20;;;;;;;18.87;59.96;100703.56;20736519;28;20082;-70
2021/09/20 14:32:01;;;;;;;11.35;7.88;;;;;;;18.33;59.42;100699.75;20668003;28;20046;-70
2021/09/20 14:42:02;;;;;;;12.30;8.38;;;;;;;18.52;60.52;100710.41;20695780;28;20046;-70
2021/09/20 14:52:04;;;;;;;12.32;8.95;;;;;;;18.34;59.61;100712.06;20662527;28;20054;-71
2021/09/20 15:02:07;;;;;;;12.15;8.07;;;;;;;18.43;61.17;100709.03;20662024;28;20046;-68
2021/09/20 15:12:09;;;;;;;13.60;9.18;;;;;;;18.49;60.69;100711.41;20700150;28;20077;-70
2021/09/20 15:22:11;;;;;;;15.18;8.98;;;;;;;18.11;61.81;100729.81;20822433;28;20077;-70
2021/09/20 15:32:12;;;;;;;13.88;8.73;;;;;;;18.13;62.54;100745.66;20822069;28;20049;-70
2021/09/20 15:42:14;;;;;;;14.93;9.43;;;;;;;17.93;62.56;100739.38;20821781;28;20411;-70
2021/09/20 15:52:16;;;;;;;13.18;8.75;;;;;;;17.85;62.41;100748.56;20822302;28;20103;-70
2021/09/20 16:02:18;;;;;;;15.73;9.10;;;;;;;17.83;62.04;100759.22;20805270;28;20049;-70
2021/09/20 16:12:23;;;;;;;13.93;10.10;;;;;;;17.77;63.45;100770.03;20800677;28;20049;-70
2021/09/20 16:22:27;;;;;;;23.45;10.40;;;;;;;17.47;65.44;100787.97;20740075;28;20100;-70
2021/09/20 16:32:28;;;;;;;15.32;8.77;;;;;;;17.24;65.97;100795.91;20737913;28;20104;-71
2021/09/20 16:42:32;;;;;;;13.57;8.30;;;;;;;17.28;65.85;100821.34;20713145;28;20104;-70
2021/09/20 16:52:35;;;;;;;20.02;12.27;;;;;;;17.07;67.42;100833.56;20756113;28;20129;-70
2021/09/20 17:02:38;;;;;;;19.20;12.88;;;;;;;17.04;68.14;100836.31;20749595;28;20049;-69
2021/09/20 17:12:40;;;;;;;21.25;12.68;;;;;;;16.80;67.54;100844.19;20748458;28;20049;-70
2021/09/20 17:22:43;;;;;;;17.17;11.40;;;;;;;16.68;68.52;100853.38;20750378;28;20057;-69
2021/09/20 17:32:45;;;;;;;19.92;11.15;;;;;;;16.53;70.07;100872.41;20745887;28;20088;-70
2021/09/20 17:42:47;;;;;;;17.52;11.07;;;;;;;16.37;70.03;100871.16;20754014;28;20159;-69
2021/09/20 17:52:49;;;;;;;15.68;11.15;;;;;;;16.13;70.01;100884.22;20751321;28;20100;-70
2021/09/20 18:02:51;;;;;;;18.13;11.13;;;;;;;16.01;70.64;100899.59;20751518;28;20041;-70
2021/09/20 18:12:54;;;;;;;17.92;11.48;;;;;;;15.76;71.40;100915.28;20745463;28;20077;-70
2021/09/20 18:22:55;;;;;;;16.52;10.52;;;;;;;15.48;72.81;100923.97;20743934;28;20054;-70
2021/09/20 18:32:59;;;;;;;17.90;10.80;;;;;;;15.39;74.01;100943.53;20743225;28;20049;-69
2021/09/20 18:43:01;;;;;;;16.15;11.30;;;;;;;15.41;74.00;100948.78;20741400;28;20052;-69
2021/09/20 18:53:03;;;;;;;16.27;10.43;;;;;;;15.29;74.13;100954.38;20740986;28;20041;-69
2021/09/20 19:03:06;;;;;;;15.93;10.23;;;;;;;15.30;73.43;100964.03;20740269;28;20092;-70
2021/09/20 19:13:09;;;;;;;18.23;11.52;;;;;;;15.20;74.32;100968.69;20738701;28;20480;-69
2021/09/20 19:23:11;;;;;;;20.45;11.50;;;;;;;14.96;75.95;100991.25;20736689;28;20038;-70
2021/09/20 19:33:12;;;;;;;17.50;11.80;;;;;;;14.69;77.43;101013.00;20739515;28;20042;-70
2021/09/20 19:43:14;;;;;;;18.25;11.73;;;;;;;14.34;79.08;101017.25;20733834;28;20103;-70
2021/09/20 19:53:16;;;;;;;19.40;11.43;;;;;;;14.26;79.77;101025.31;20736302;28;20116;-70
2021/09/20 20:03:18;;;;;;;18.17;10.80;;;;;;;14.16;79.47;101033.44;20747578;28;20045;-70
2021/09/20 20:13:21;;;;;;;21.10;11.93;;;;;;;14.29;79.06;101040.19;20738974;28;20073;-70
2021/09/20 20:23:29;;;;;;;15.85;10.35;;;;;;;14.27;78.35;101032.28;20742297;28;20045;-69
2021/09/20 20:33:31;;;;;;;16.58;10.52;;;;;;;14.23;76.43;101040.28;20732509;28;20045;-69
2021/09/20 20:43:34;;;;;;;15.80;9.23;;;;;;;14.11;76.44;101055.44;20731865;28;20717;-69
2021/09/20 20:53:36;;;;;;;19.30;10.27;;;;;;;13.82;80.09;101068.31;20731876;28;20050;-69
2021/09/20 21:03:41;;;;;;;14.57;10.38;;;;;;;13.64;80.65;101076.53;20729087;28;20046;-69
2021/09/20 21:13:43;;;;;;;16.60;10.77;;;;;;;13.54;81.28;101081.94;20732909;28;20129;-70
2021/09/20 21:23:45;;;;;;;15.25;10.30;;;;;;;13.53;80.97;101084.63;20732921;28;20050;-69
2021/09/20 21:33:47;;;;;;;18.50;10.68;;;;;;;13.67;79.43;101093.13;20736371;28;20038;-70
2021/09/20 21:43:49;;;;;;;16.30;10.10;;;;;;;13.64;79.54;101100.22;20746522;28;20100;-69
2021/09/20 21:53:50;;;;;;;14.32;10.02;;;;;;;13.59;78.27;101102.91;20748265;28;20038;-69
2021/09/20 22:03:53;;;;;;;14.68;9.35;;;;;;;13.44;78.63;101111.94;20745181;28;20066;-69
2021/09/20 22:13:54;;;;;;;14.77;9.70;;;;;;;13.40;78.95;101127.78;20738675;28;20111;-68
2021/09/20 22:23:56;;;;;;;15.68;9.15;;;;;;;13.42;77.47;101131.28;20738037;28;20046;-68
2021/09/20 22:33:58;;;;;;;13.85;8.98;;;;;;;13.60;75.64;101141.50;20731725;28;20053;-69
2021/09/20 22:44:00;;;;;;;12.73;8.25;;;;;;;13.59;74.17;101150.28;20732751;28;20073;-69
2021/09/20 22:54:02;;;;;;;13.45;7.55;;;;;;;13.64;72.50;101158.09;20734849;28;20407;-69
2021/09/20 23:04:04;;;;;;;10.68;6.63;;;;;;;13.59;69.59;101166.94;20734302;28;20096;-69
2021/09/20 23:14:06;;;;;;;9.45;6.95;;;;;;;13.40;69.50;101167.25;20733972;28;20099;-69
2021/09/20 23:24:08;;;;;;;10.25;6.90;;;;;;;13.40;68.52;101177.78;20733341;28;20530;-69
2021/09/20 23:34:10;;;;;;;9.00;6.32;;;;;;;13.33;67.78;101177.00;20730725;28;20103;-69
2021/09/20 23:44:11;;;;;;;9.10;6.90;;;;;;;13.34;67.63;101186.63;20730100;28;20042;-69
2021/09/20 23:54:13;;;;;;;9.45;6.70;;;;;;;13.34;67.75;101199.78;20730697;28;20045;-69
